createdAt,value
2023-01-08T00:01:06.366Z,8.60
2023-01-08T00:03:33.481Z,8.60
2023-01-08T00:06:02.093Z,8.40
2023-01-08T00:08:29.630Z,8.40
2023-01-08T00:10:56.353Z,8.50
2023-01-08T00:13:23.519Z,8.80
2023-01-08T00:15:50.035Z,8.60
2023-01-08T00:18:16.574Z,8.60
2023-01-08T00:20:44.378Z,8.60
2023-01-08T00:23:14.990Z,8.60
2023-01-08T00:25:41.600Z,8.40
2023-01-08T00:28:08.271Z,8.40
2023-01-08T00:30:35.241Z,8.30
2023-01-08T00:33:01.829Z,8.30
2023-01-08T00:35:28.360Z,8.30
2023-01-08T00:37:54.993Z,8.10
2023-01-08T00:40:21.527Z,8.10
2023-01-08T00:42:48.244Z,8.10
2023-01-08T00:45:14.875Z,8.10
2023-01-08T00:47:41.501Z,8.30
2023-01-08T00:50:08.412Z,8.20
2023-01-08T00:52:34.949Z,8.10
2023-01-08T00:55:01.458Z,8.20
2023-01-08T00:57:33.396Z,8.30
2023-01-08T00:59:59.882Z,8.00
2023-01-08T01:02:27.682Z,8.00
2023-01-08T01:04:54.315Z,8.10
2023-01-08T01:07:20.926Z,8.30
2023-01-08T01:09:47.440Z,8.20
2023-01-08T01:12:14.001Z,8.10
2023-01-08T01:14:40.682Z,8.10
2023-01-08T01:17:07.202Z,8.10
2023-01-08T01:19:33.721Z,8.00
2023-01-08T01:22:00.207Z,8.20
2023-01-08T01:24:27.781Z,8.20
2023-01-08T01:26:56.357Z,8.10
2023-01-08T01:29:23.839Z,8.00
2023-01-08T01:31:56.725Z,8.10
2023-01-08T01:34:23.260Z,8.30
2023-01-08T01:36:49.737Z,8.10
2023-01-08T01:39:16.320Z,8.00
2023-01-08T01:41:45.012Z,8.10
2023-01-08T01:44:43.782Z,7.90
2023-01-08T01:47:21.472Z,7.80
2023-01-08T01:50:13.324Z,7.90
2023-01-08T01:52:50.109Z,8.00
2023-01-08T01:55:17.599Z,7.80
2023-01-08T01:57:48.444Z,7.80
2023-01-08T02:00:15.431Z,7.80
2023-01-08T02:02:41.955Z,7.70
2023-01-08T02:05:08.884Z,7.80
2023-01-08T02:07:52.561Z,7.70
2023-01-08T02:10:39.315Z,7.90
2023-01-08T02:13:12.663Z,7.80
2023-01-08T02:16:08.532Z,7.60
2023-01-08T02:18:40.101Z,7.60
2023-01-08T02:21:11.603Z,7.60
2023-01-08T02:24:01.303Z,7.70
2023-01-08T02:26:32.212Z,7.50
2023-01-08T02:29:08.240Z,7.80
2023-01-08T02:31:36.696Z,7.90
2023-01-08T02:34:03.306Z,7.80
2023-01-08T02:36:37.222Z,7.60
2023-01-08T02:39:26.882Z,7.50
2023-01-08T02:41:56.604Z,7.50
2023-01-08T02:44:51.065Z,7.40
2023-01-08T02:47:25.072Z,7.50
2023-01-08T02:49:56.188Z,7.50
2023-01-08T02:52:23.624Z,7.40
2023-01-08T02:54:50.536Z,7.40
2023-01-08T02:57:17.862Z,7.30
2023-01-08T02:59:45.103Z,7.30
2023-01-08T03:02:12.227Z,7.30
2023-01-08T03:04:43.511Z,7.40
2023-01-08T03:07:10.104Z,7.20
2023-01-08T03:09:36.644Z,7.10
2023-01-08T03:12:13.285Z,7.30
2023-01-08T03:15:07.530Z,7.30
2023-01-08T03:17:37.446Z,7.20
2023-01-08T03:20:23.571Z,7.20
2023-01-08T03:22:53.315Z,7.20
2023-01-08T03:25:22.470Z,7.20
2023-01-08T03:27:54.020Z,7.10
2023-01-08T03:30:21.899Z,7.30
2023-01-08T03:32:50.219Z,7.30
2023-01-08T03:35:21.031Z,7.50
2023-01-08T03:38:15.665Z,7.30
2023-01-08T03:40:48.588Z,7.30
2023-01-08T03:43:15.159Z,7.50
2023-01-08T03:46:03.908Z,7.30
2023-01-08T03:48:31.411Z,7.30
2023-01-08T03:50:57.936Z,7.30
2023-01-08T03:53:24.535Z,7.30
2023-01-08T03:55:51.028Z,7.20
2023-01-08T03:58:17.642Z,7.30
2023-01-08T04:00:44.143Z,7.30
2023-01-08T04:03:10.706Z,7.40
2023-01-08T04:05:37.278Z,7.50
2023-01-08T04:08:03.985Z,7.40
2023-01-08T04:10:30.512Z,7.40
2023-01-08T04:12:56.997Z,7.20
2023-01-08T04:15:23.503Z,7.50
2023-01-08T04:17:50.077Z,7.40
2023-01-08T04:20:16.731Z,7.30
2023-01-08T04:22:43.196Z,7.20
2023-01-08T04:25:09.789Z,7.30
2023-01-08T04:27:36.263Z,7.10
2023-01-08T04:30:03.613Z,7.30
2023-01-08T04:32:30.126Z,7.40
2023-01-08T04:34:56.654Z,7.40
2023-01-08T04:37:23.186Z,7.40
2023-01-08T04:39:49.726Z,7.50
2023-01-08T04:42:16.256Z,7.40
2023-01-08T04:44:42.797Z,7.40
2023-01-08T04:47:09.336Z,7.30
2023-01-08T04:49:35.849Z,7.60
2023-01-08T04:52:02.390Z,7.50
2023-01-08T04:54:28.864Z,7.40
2023-01-08T04:56:55.350Z,7.60
2023-01-08T04:59:21.875Z,7.50
2023-01-08T05:01:48.486Z,7.50
2023-01-08T05:04:15.106Z,7.40
2023-01-08T05:06:41.628Z,7.50
2023-01-08T05:09:08.317Z,7.30
2023-01-08T05:11:37.187Z,7.60
2023-01-08T05:14:04.190Z,7.90
2023-01-08T05:16:31.012Z,7.40
2023-01-08T05:18:57.763Z,7.30
2023-01-08T05:21:24.255Z,7.20
2023-01-08T05:23:50.832Z,7.10
2023-01-08T05:26:17.571Z,7.40
2023-01-08T05:28:44.188Z,7.40
2023-01-08T05:31:11.693Z,7.70
2023-01-08T05:33:38.693Z,7.80
2023-01-08T05:36:07.001Z,7.80
2023-01-08T05:38:33.904Z,7.80
2023-01-08T05:41:00.700Z,7.80
2023-01-08T05:43:27.390Z,7.60
2023-01-08T05:45:53.956Z,7.30
2023-01-08T05:48:20.433Z,7.30
2023-01-08T05:50:49.228Z,7.20
2023-01-08T05:53:15.819Z,7.40
2023-01-08T05:55:42.435Z,7.40
2023-01-08T05:58:08.999Z,7.40
2023-01-08T06:00:35.615Z,7.40
2023-01-08T06:03:02.214Z,7.30
2023-01-08T06:05:30.669Z,7.40
2023-01-08T06:07:58.200Z,7.50
2023-01-08T06:10:24.956Z,7.40
2023-01-08T06:12:51.926Z,7.30
2023-01-08T06:15:18.759Z,7.10
2023-01-08T06:17:45.311Z,7.10
2023-01-08T06:20:12.111Z,7.40
2023-01-08T06:22:38.605Z,7.30
2023-01-08T06:25:05.576Z,7.10
2023-01-08T06:27:32.099Z,7.20
2023-01-08T06:29:58.793Z,7.10
2023-01-08T06:32:25.329Z,7.20
2023-01-08T06:34:51.837Z,7.20
2023-01-08T06:37:18.354Z,7.30
2023-01-08T06:39:44.921Z,7.20
2023-01-08T06:42:11.397Z,7.30
2023-01-08T06:44:38.061Z,7.40
2023-01-08T06:47:04.671Z,7.40
2023-01-08T06:49:31.220Z,7.20
2023-01-08T06:51:57.921Z,7.30
2023-01-08T06:54:24.487Z,7.20
2023-01-08T06:56:54.027Z,7.00
2023-01-08T06:59:21.267Z,7.10
2023-01-08T07:01:47.994Z,7.10
2023-01-08T07:04:14.635Z,7.20
2023-01-08T07:06:41.324Z,7.30
2023-01-08T07:09:07.924Z,7.30
2023-01-08T07:11:34.473Z,7.40
2023-01-08T07:14:01.001Z,7.40
2023-01-08T07:16:27.706Z,7.30
2023-01-08T07:18:54.438Z,7.30
2023-01-08T07:21:22.556Z,7.30
2023-01-08T07:23:49.749Z,7.50
2023-01-08T07:26:16.535Z,7.60
2023-01-08T07:28:43.330Z,7.60
2023-01-08T07:31:10.283Z,7.70
2023-01-08T07:33:36.848Z,7.80
2023-01-08T07:36:04.247Z,7.90
2023-01-08T07:38:30.774Z,7.80
2023-01-08T07:40:58.991Z,7.80
2023-01-08T07:43:26.183Z,7.80
2023-01-08T07:45:52.737Z,7.80
2023-01-08T07:48:19.241Z,7.90
2023-01-08T07:50:45.999Z,7.50
2023-01-08T07:53:13.496Z,7.50
2023-01-08T07:55:40.107Z,7.60
2023-01-08T07:58:13.972Z,7.50
2023-01-08T08:00:41.384Z,7.60
2023-01-08T08:03:11.480Z,7.90
2023-01-08T08:05:38.677Z,7.70
2023-01-08T08:08:09.971Z,7.70
2023-01-08T08:10:36.847Z,7.70
2023-01-08T08:13:03.421Z,7.70
2023-01-08T08:15:29.984Z,7.80
2023-01-08T08:17:56.481Z,7.80
2023-01-08T08:20:22.989Z,7.80
2023-01-08T08:22:49.471Z,7.70
2023-01-08T08:25:19.231Z,7.70
2023-01-08T08:27:45.895Z,7.60
2023-01-08T08:30:13.509Z,7.60
2023-01-08T08:32:40.450Z,7.60
2023-01-08T08:35:07.178Z,7.70
2023-01-08T08:37:33.671Z,7.80
2023-01-08T08:40:00.238Z,7.90
2023-01-08T08:42:26.762Z,8.00
2023-01-08T08:44:53.295Z,7.90
2023-01-08T08:47:19.785Z,8.00
2023-01-08T08:49:46.326Z,8.10
2023-01-08T08:52:13.574Z,8.00
2023-01-08T08:54:41.575Z,8.00
2023-01-08T08:57:11.175Z,8.00
2023-01-08T08:59:37.644Z,7.90
2023-01-08T09:02:04.997Z,7.90
2023-01-08T09:04:33.256Z,8.00
2023-01-08T09:07:00.209Z,8.30
2023-01-08T09:09:27.213Z,8.40
2023-01-08T09:11:54.120Z,8.30
2023-01-08T09:14:21.191Z,8.30
2023-01-08T09:16:47.734Z,8.40
2023-01-08T09:19:14.296Z,8.60
2023-01-08T09:21:40.864Z,9.00
2023-01-08T09:24:07.937Z,9.20
2023-01-08T09:26:34.560Z,8.70
2023-01-08T09:29:01.184Z,8.50
2023-01-08T09:31:28.003Z,8.60
2023-01-08T09:33:54.576Z,8.80
2023-01-08T09:36:21.159Z,8.90
2023-01-08T09:38:47.695Z,8.60
2023-01-08T09:41:21.722Z,8.60
2023-01-08T09:43:50.449Z,8.60
2023-01-08T09:46:19.015Z,8.60
2023-01-08T09:48:46.141Z,8.50
2023-01-08T09:51:13.952Z,8.70
2023-01-08T09:53:41.028Z,8.70
2023-01-08T09:56:15.499Z,8.50
2023-01-08T09:58:50.540Z,8.50
2023-01-08T10:01:24.087Z,8.40
2023-01-08T10:04:07.011Z,8.50
2023-01-08T10:06:33.918Z,8.60
2023-01-08T10:09:00.692Z,8.60
2023-01-08T10:11:32.799Z,8.70
2023-01-08T10:13:59.549Z,8.70
2023-01-08T10:16:32.171Z,8.80
2023-01-08T10:18:59.780Z,8.80
2023-01-08T10:21:32.937Z,8.70
2023-01-08T10:23:59.456Z,8.60
2023-01-08T10:26:36.411Z,8.60
2023-01-08T10:29:21.046Z,8.60
2023-01-08T10:31:53.920Z,8.40
2023-01-08T10:34:39.476Z,8.40
2023-01-08T10:37:27.095Z,8.30
2023-01-08T10:39:56.354Z,8.30
2023-01-08T10:42:24.274Z,8.20
2023-01-08T10:45:05.362Z,8.20
2023-01-08T10:47:35.303Z,8.30
2023-01-08T10:50:04.233Z,8.50
2023-01-08T10:52:34.388Z,8.60
2023-01-08T10:55:38.527Z,8.80
2023-01-08T10:58:14.315Z,8.90
2023-01-08T11:00:41.175Z,9.20
2023-01-08T11:03:18.915Z,9.00
2023-01-08T11:05:46.481Z,8.80
2023-01-08T11:08:17.902Z,8.80
2023-01-08T11:10:53.732Z,8.70
2023-01-08T11:13:20.638Z,8.50
2023-01-08T11:15:47.556Z,8.50
2023-01-08T11:18:23.511Z,8.50
2023-01-08T11:20:50.991Z,8.80
2023-01-08T11:23:21.535Z,8.90
2023-01-08T11:25:56.508Z,8.70
2023-01-08T11:28:37.610Z,8.70
2023-01-08T11:34:06.182Z,8.60
2023-01-08T11:36:34.885Z,8.50
2023-01-08T11:39:02.229Z,8.50
2023-01-08T11:41:47.847Z,8.80
2023-01-08T11:44:21.699Z,8.70
2023-01-08T11:47:06.211Z,8.60
2023-01-08T11:49:48.579Z,8.60
2023-01-08T11:52:33.459Z,8.70
2023-01-08T11:55:22.344Z,8.80
2023-01-08T11:58:33.986Z,8.70
2023-01-08T12:01:40.223Z,8.70
2023-01-08T12:04:25.480Z,8.70
2023-01-08T12:07:04.213Z,8.70
2023-01-08T12:09:43.035Z,8.80
2023-01-08T12:12:29.450Z,8.80
2023-01-08T12:15:07.531Z,8.80
2023-01-08T12:17:34.077Z,8.90
2023-01-08T12:20:34.606Z,9.00
2023-01-08T12:23:32.214Z,9.10
2023-01-08T12:26:17.790Z,9.10
2023-01-08T12:29:22.709Z,9.10
2023-01-08T12:32:07.416Z,9.30
2023-01-08T12:34:54.494Z,9.30
2023-01-08T12:37:32.196Z,9.30
2023-01-08T12:40:07.464Z,9.40
2023-01-08T12:42:36.826Z,9.50
2023-01-08T12:45:04.482Z,9.40
2023-01-08T12:47:33.380Z,9.50
2023-01-08T12:50:14.665Z,9.60
2023-01-08T12:52:41.914Z,9.50
2023-01-08T12:55:26.071Z,9.50
2023-01-08T12:58:06.316Z,9.50
2023-01-08T13:00:54.653Z,9.50
2023-01-08T13:03:26.826Z,9.50
2023-01-08T13:05:53.772Z,9.40
2023-01-08T13:08:34.334Z,9.40
2023-01-08T13:11:01.207Z,9.60
2023-01-08T13:13:44.235Z,9.50
2023-01-08T13:16:20.149Z,9.50
2023-01-08T13:18:59.939Z,9.40
2023-01-08T13:21:39.628Z,9.50
2023-01-08T13:24:07.869Z,9.40
2023-01-08T13:26:36.922Z,9.50
2023-01-08T13:29:24.588Z,9.50
2023-01-08T13:32:34.522Z,9.50
2023-01-08T13:35:03.675Z,9.40
2023-01-08T13:37:30.292Z,9.40
2023-01-08T13:39:57.133Z,9.30
2023-01-08T13:42:31.377Z,9.40
2023-01-08T13:45:00.992Z,9.30
2023-01-08T13:47:33.744Z,9.30
2023-01-08T13:50:06.027Z,9.30
2023-01-08T13:53:03.775Z,9.40
2023-01-08T13:55:34.090Z,9.40
2023-01-08T13:58:24.610Z,9.30
2023-01-08T14:00:53.812Z,9.10
2023-01-08T14:03:30.395Z,9.00
2023-01-08T14:06:20.033Z,8.90
2023-01-08T14:08:59.923Z,9.00
2023-01-08T14:11:33.457Z,8.90
2023-01-08T14:14:00.072Z,8.90
2023-01-08T14:16:26.906Z,8.90
2023-01-08T14:18:57.879Z,8.80
2023-01-08T14:21:25.038Z,8.80
2023-01-08T14:23:53.875Z,8.70
2023-01-08T14:26:26.370Z,8.70
2023-01-08T14:28:54.064Z,8.70
2023-01-08T14:31:22.538Z,8.60
2023-01-08T14:33:51.426Z,8.60
2023-01-08T14:36:19.345Z,8.60
2023-01-08T14:38:50.593Z,8.50
2023-01-08T14:41:52.394Z,8.50
2023-01-08T14:44:26.005Z,8.80
2023-01-08T14:46:55.945Z,8.50
2023-01-08T14:49:28.637Z,8.30
2023-01-08T14:51:56.792Z,8.30
2023-01-08T14:54:28.589Z,8.20
2023-01-08T14:56:58.374Z,8.30
2023-01-08T14:59:30.087Z,8.40
2023-01-08T15:01:58.915Z,8.30
2023-01-08T15:04:26.026Z,8.60
2023-01-08T15:07:22.664Z,8.60
2023-01-08T15:10:00.995Z,8.40
2023-01-08T15:12:30.885Z,8.60
2023-01-08T15:14:57.525Z,8.60
2023-01-08T15:17:28.513Z,8.40
2023-01-08T15:19:56.609Z,8.40
2023-01-08T15:22:27.388Z,8.40
2023-01-08T15:25:01.819Z,8.70
2023-01-08T15:27:31.245Z,8.40
2023-01-08T15:30:03.473Z,8.30
2023-01-08T15:32:36.798Z,8.40
2023-01-08T15:35:28.492Z,8.30
2023-01-08T15:37:55.046Z,8.40
2023-01-08T15:40:21.567Z,8.50
2023-01-08T15:43:06.766Z,8.30
2023-01-08T15:45:33.335Z,8.30
2023-01-08T15:48:00.125Z,8.20
2023-01-08T15:50:27.981Z,8.30
2023-01-08T15:52:57.573Z,8.40
2023-01-08T15:55:24.443Z,8.40
2023-01-08T15:57:51.300Z,8.40
2023-01-08T16:00:19.773Z,8.40
2023-01-08T16:02:50.950Z,8.50
2023-01-08T16:05:19.081Z,8.60
2023-01-08T16:07:46.278Z,8.50
2023-01-08T16:10:14.046Z,8.30
2023-01-08T16:12:40.703Z,8.30
2023-01-08T16:15:08.142Z,8.30
2023-01-08T16:17:36.461Z,8.30
2023-01-08T16:20:04.594Z,8.40
2023-01-08T16:22:31.169Z,8.60
2023-01-08T16:25:03.813Z,8.50
2023-01-08T16:27:34.096Z,8.30
2023-01-08T16:30:00.703Z,8.40
2023-01-08T16:32:27.303Z,8.50
2023-01-08T16:34:54.902Z,8.30
2023-01-08T16:37:22.215Z,8.30
2023-01-08T16:39:49.008Z,8.30
2023-01-08T16:42:15.557Z,8.40
2023-01-08T16:44:42.527Z,8.40
2023-01-08T16:47:09.063Z,8.40
2023-01-08T16:49:36.048Z,8.40
2023-01-08T16:52:02.755Z,8.30
2023-01-08T16:54:30.686Z,8.40
2023-01-08T16:56:57.300Z,8.50
2023-01-08T16:59:27.199Z,8.50
2023-01-08T17:01:53.856Z,8.50
2023-01-08T17:04:20.667Z,8.50
2023-01-08T17:06:47.268Z,8.40
2023-01-08T17:09:14.820Z,8.50
2023-01-08T17:11:41.947Z,8.40
2023-01-08T17:14:08.899Z,8.50
2023-01-08T17:16:35.529Z,8.40
2023-01-08T17:19:02.159Z,8.60
2023-01-08T17:21:28.695Z,8.40
2023-01-08T17:23:55.308Z,8.30
2023-01-08T17:26:21.946Z,8.40
2023-01-08T17:28:48.690Z,8.40
2023-01-08T17:31:20.360Z,8.20
2023-01-08T17:33:51.120Z,8.10
2023-01-08T17:36:25.989Z,7.90
2023-01-08T17:38:54.223Z,8.00
2023-01-08T17:41:40.401Z,8.10
2023-01-08T17:44:08.894Z,8.10
2023-01-08T17:46:42.229Z,8.00
2023-01-08T17:49:11.062Z,8.00
2023-01-08T17:51:38.652Z,7.90
2023-01-08T17:54:05.272Z,7.90
2023-01-08T17:56:32.033Z,7.90
2023-01-08T17:58:58.803Z,7.80
2023-01-08T18:01:25.555Z,7.70
2023-01-08T18:03:55.726Z,7.60
2023-01-08T18:06:24.985Z,7.70
2023-01-08T18:08:54.548Z,7.50
2023-01-08T18:11:21.085Z,7.60
2023-01-08T18:13:47.931Z,7.60
2023-01-08T18:16:15.104Z,7.60
2023-01-08T18:18:41.750Z,7.50
2023-01-08T18:21:08.501Z,7.70
2023-01-08T18:23:34.968Z,7.70
2023-01-08T18:26:06.450Z,7.70
2023-01-08T18:28:33.166Z,7.60
2023-01-08T18:31:00.158Z,7.50
2023-01-08T18:33:27.381Z,7.60
2023-01-08T18:35:54.048Z,7.80
2023-01-08T18:38:20.573Z,7.70
2023-01-08T18:40:48.363Z,7.70
2023-01-08T18:43:14.920Z,7.70
2023-01-08T18:45:41.624Z,7.60
2023-01-08T18:48:09.497Z,7.60
2023-01-08T18:50:39.366Z,7.40
2023-01-08T18:53:09.063Z,7.50
2023-01-08T18:55:36.912Z,7.60
2023-01-08T18:58:04.517Z,7.50
2023-01-08T19:00:31.419Z,7.70
2023-01-08T19:02:57.976Z,7.60
2023-01-08T19:05:24.901Z,7.40
2023-01-08T19:07:51.636Z,7.30
2023-01-08T19:10:18.713Z,7.30
2023-01-08T19:12:45.773Z,7.30
2023-01-08T19:15:12.872Z,7.30
2023-01-08T19:17:41.860Z,7.20
2023-01-08T19:20:09.435Z,7.30
2023-01-08T19:22:35.965Z,7.30
2023-01-08T19:25:02.543Z,7.30
2023-01-08T19:27:29.078Z,7.30
2023-01-08T19:29:55.823Z,7.30
2023-01-08T19:32:22.396Z,7.40
2023-01-08T19:34:49.042Z,7.30
2023-01-08T19:37:15.577Z,7.20
2023-01-08T19:39:43.156Z,7.30
2023-01-08T19:42:29.741Z,7.10
2023-01-08T19:44:56.913Z,7.10
2023-01-08T19:47:24.536Z,7.30
2023-01-08T19:49:51.104Z,7.40
2023-01-08T19:52:18.218Z,7.30
2023-01-08T19:54:45.215Z,7.30
2023-01-08T19:57:12.014Z,7.60
2023-01-08T19:59:38.923Z,7.60
2023-01-08T20:02:05.642Z,7.30
2023-01-08T20:04:36.625Z,7.50
2023-01-08T20:07:03.377Z,7.40
2023-01-08T20:09:31.444Z,7.40
2023-01-08T20:11:58.080Z,7.30
2023-01-08T20:14:24.658Z,7.20
2023-01-08T20:16:51.313Z,7.30
2023-01-08T20:19:32.919Z,7.30
2023-01-08T20:22:03.311Z,7.30
2023-01-08T20:24:33.112Z,7.10
2023-01-08T20:26:59.695Z,7.00
2023-01-08T20:29:28.029Z,7.20
2023-01-08T20:31:57.466Z,7.20
2023-01-08T20:34:26.411Z,7.20
2023-01-08T20:36:54.023Z,7.10
2023-01-08T20:39:24.784Z,7.30
2023-01-08T20:42:03.744Z,7.20
2023-01-08T20:44:37.308Z,7.30
2023-01-08T20:47:04.772Z,7.40
2023-01-08T20:49:31.371Z,7.30
2023-01-08T20:52:17.857Z,7.50
2023-01-08T20:54:48.245Z,7.60
2023-01-08T20:57:14.884Z,7.30
2023-01-08T20:59:41.831Z,7.10
2023-01-08T21:02:12.942Z,7.20
2023-01-08T21:04:44.787Z,6.80
2023-01-08T21:07:12.631Z,6.70
2023-01-08T21:09:40.365Z,6.50
2023-01-08T21:12:08.190Z,6.40
2023-01-08T21:14:35.067Z,6.40
2023-01-08T21:17:05.080Z,6.20
2023-01-08T21:19:32.816Z,6.40
2023-01-08T21:22:02.404Z,6.40
2023-01-08T21:24:29.014Z,6.40
2023-01-08T21:26:55.575Z,6.50
2023-01-08T21:29:23.475Z,6.50
2023-01-08T21:31:50.388Z,6.50
2023-01-08T21:34:17.889Z,6.60
2023-01-08T21:36:44.587Z,6.70
2023-01-08T21:39:11.329Z,6.60
2023-01-08T21:41:56.668Z,6.90
2023-01-08T21:44:43.998Z,6.70
2023-01-08T21:47:13.794Z,6.70
2023-01-08T21:49:41.064Z,6.70
2023-01-08T21:52:26.251Z,6.60
2023-01-08T21:54:54.444Z,6.70
2023-01-08T21:57:21.745Z,6.90
2023-01-08T21:59:49.996Z,7.00
2023-01-08T22:02:18.216Z,6.90
2023-01-08T22:04:45.229Z,6.70
2023-01-08T22:07:12.144Z,6.70
2023-01-08T22:09:39.120Z,6.50
2023-01-08T22:12:06.860Z,6.70
2023-01-08T22:14:34.161Z,6.80
2023-01-08T22:17:00.768Z,6.90
2023-01-08T22:19:27.403Z,6.90
2023-01-08T22:21:53.953Z,6.80
2023-01-08T22:24:20.515Z,6.90
2023-01-08T22:26:48.533Z,6.60
2023-01-08T22:29:15.160Z,6.50
2023-01-08T22:31:43.253Z,6.50
2023-01-08T22:34:14.107Z,6.40
2023-01-08T22:36:40.656Z,6.50
2023-01-08T22:39:07.206Z,6.50
2023-01-08T22:41:33.681Z,6.50
2023-01-08T22:44:00.316Z,6.60
2023-01-08T22:46:28.274Z,6.40
2023-01-08T22:48:54.821Z,6.50
2023-01-08T22:51:27.758Z,6.40
2023-01-08T22:53:58.606Z,6.80
2023-01-08T22:56:26.062Z,6.60
2023-01-08T22:58:52.783Z,6.70
2023-01-08T23:01:23.463Z,6.60
2023-01-08T23:03:55.909Z,6.60
2023-01-08T23:06:23.601Z,6.50
2023-01-08T23:08:50.605Z,6.50
2023-01-08T23:11:19.015Z,6.40
2023-01-08T23:13:46.258Z,6.20
2023-01-08T23:16:15.025Z,6.30
2023-01-08T23:18:41.940Z,6.30
2023-01-08T23:21:17.469Z,6.20
2023-01-08T23:23:44.647Z,6.20
2023-01-08T23:26:14.441Z,6.10
2023-01-08T23:28:40.976Z,6.20
2023-01-08T23:31:08.948Z,6.20
2023-01-08T23:33:35.522Z,6.40
2023-01-08T23:36:02.329Z,6.20
2023-01-08T23:38:29.303Z,6.10
2023-01-08T23:40:56.458Z,6.10
2023-01-08T23:43:22.976Z,6.10
2023-01-08T23:45:49.605Z,5.90
2023-01-08T23:48:16.345Z,5.80
2023-01-08T23:50:43.012Z,5.90
2023-01-08T23:53:09.566Z,6.10
2023-01-08T23:55:36.121Z,6.10
2023-01-08T23:58:02.783Z,6.20
